sensor_id;sensor_type;location;lat;lon;timestamp;P1;durP1;ratioP1;P2;durP2;ratioP2
51226;SDS011;42714;48.260;10.980;2023-10-08T00:02:06;8.5;;;2.6;;
51226;SDS011;42714;48.260;10.980;2023-10-08T00:07:06;9.4;;;2.9;;
51226;SDS011;42714;48.260;10.980;2023-10-08T00:12:06;8.0;;;2.6;;
51226;SDS011;42714;48.260;10.980;2023-10-08T00:17:06;8.6;;;2.6;;
51226;SDS011;42714;48.260;10.980;2023-10-08T00:22:06;8.0;;;2.5;;
51226;SDS011;42714;48.260;10.980;2023-10-08T00:27:07;8.9;;;2.7;;
51226;SDS011;42714;48.260;10.980;2023-10-08T00:32:06;7.7;;;2.6;;
51226;SDS011;42714;48.260;10.980;2023-10-08T00:37:07;9.9;;;2.7;;
51226;SDS011;42714;48.260;10.980;2023-10-08T00:42:07;8.5;;;2.7;;
51226;SDS011;42714;48.260;10.980;2023-10-08T00:47:06;8.9;;;2.6;;
51226;SDS011;42714;48.260;10.980;2023-10-08T00:52:08;7.1;;;2.7;;
51226;SDS011;42714;48.260;10.980;2023-10-08T00:57:06;7.9;;;2.8;;
51226;SDS011;42714;48.260;10.980;2023-10-08T01:02:06;7.0;;;2.3;;
51226;SDS011;42714;48.260;10.980;2023-10-08T01:07:06;7.7;;;2.8;;
51226;SDS011;42714;48.260;10.980;2023-10-08T01:12:10;9.1;;;2.1;;
51226;SDS011;42714;48.260;10.980;2023-10-08T01:17:06;7.5;;;2.4;;
51226;SDS011;42714;48.260;10.980;2023-10-08T01:22:06;8.9;;;2.5;;
51226;SDS011;42714;48.260;10.980;2023-10-08T01:27:06;10.6;;;2.7;;
51226;SDS011;42714;48.260;10.980;2023-10-08T01:32:06;9.7;;;2.6;;
51226;SDS011;42714;48.260;10.980;2023-10-08T01:37:06;7.5;;;2.5;;
51226;SDS011;42714;48.260;10.980;2023-10-08T01:42:06;7.1;;;2.8;;
51226;SDS011;42714;48.260;10.980;2023-10-08T01:47:07;8.4;;;2.6;;
51226;SDS011;42714;48.260;10.980;2023-10-08T01:52:06;8.1;;;2.5;;
51226;SDS011;42714;48.260;10.980;2023-10-08T01:57:07;12.0;;;2.9;;
51226;SDS011;42714;48.260;10.980;2023-10-08T02:02:07;9.6;;;3.2;;
51226;SDS011;42714;48.260;10.980;2023-10-08T02:07:07;8.0;;;2.5;;
51226;SDS011;42714;48.260;10.980;2023-10-08T02:12:07;12.0;;;2.7;;
51226;SDS011;42714;48.260;10.980;2023-10-08T02:17:07;7.7;;;2.2;;
51226;SDS011;42714;48.260;10.980;2023-10-08T02:22:07;7.6;;;2.6;;
51226;SDS011;42714;48.260;10.980;2023-10-08T02:27:07;8.0;;;2.5;;
51226;SDS011;42714;48.260;10.980;2023-10-08T02:32:07;7.9;;;2.7;;
51226;SDS011;42714;48.260;10.980;2023-10-08T02:37:07;6.7;;;2.5;;
51226;SDS011;42714;48.260;10.980;2023-10-08T02:42:07;7.8;;;2.2;;
51226;SDS011;42714;48.260;10.980;2023-10-08T02:47:10;8.1;;;2.5;;
51226;SDS011;42714;48.260;10.980;2023-10-08T02:52:07;7.2;;;2.4;;
51226;SDS011;42714;48.260;10.980;2023-10-08T02:57:07;11.1;;;2.6;;
51226;SDS011;42714;48.260;10.980;2023-10-08T03:02:07;6.5;;;2.5;;
51226;SDS011;42714;48.260;10.980;2023-10-08T03:07:07;6.2;;;2.2;;
51226;SDS011;42714;48.260;10.980;2023-10-08T03:12:07;7.6;;;2.1;;
51226;SDS011;42714;48.260;10.980;2023-10-08T03:17:07;6.8;;;2.6;;
51226;SDS011;42714;48.260;10.980;2023-10-08T03:22:07;6.7;;;2.3;;
51226;SDS011;42714;48.260;10.980;2023-10-08T03:27:07;8.1;;;2.3;;
51226;SDS011;42714;48.260;10.980;2023-10-08T03:32:10;7.0;;;2.5;;
51226;SDS011;42714;48.260;10.980;2023-10-08T03:37:07;8.0;;;2.6;;
51226;SDS011;42714;48.260;10.980;2023-10-08T03:42:07;6.0;;;2.3;;
51226;SDS011;42714;48.260;10.980;2023-10-08T03:47:07;8.4;;;2.2;;
51226;SDS011;42714;48.260;10.980;2023-10-08T03:52:07;8.2;;;2.3;;
51226;SDS011;42714;48.260;10.980;2023-10-08T03:57:07;6.7;;;1.9;;
51226;SDS011;42714;48.260;10.980;2023-10-08T04:02:07;8.2;;;2.4;;
51226;SDS011;42714;48.260;10.980;2023-10-08T04:07:07;9.3;;;2.6;;
51226;SDS011;42714;48.260;10.980;2023-10-08T04:12:07;10.0;;;2.4;;
51226;SDS011;42714;48.260;10.980;2023-10-08T04:17:07;7.5;;;2.3;;
51226;SDS011;42714;48.260;10.980;2023-10-08T04:22:07;6.9;;;2.3;;
51226;SDS011;42714;48.260;10.980;2023-10-08T04:27:07;11.0;;;2.7;;
51226;SDS011;42714;48.260;10.980;2023-10-08T04:32:07;6.8;;;2.2;;
51226;SDS011;42714;48.260;10.980;2023-10-08T04:37:07;8.2;;;2.0;;
51226;SDS011;42714;48.260;10.980;2023-10-08T04:42:07;8.4;;;2.1;;
51226;SDS011;42714;48.260;10.980;2023-10-08T04:47:07;7.5;;;1.9;;
51226;SDS011;42714;48.260;10.980;2023-10-08T04:52:07;8.1;;;2.5;;
51226;SDS011;42714;48.260;10.980;2023-10-08T04:57:07;9.1;;;2.7;;
51226;SDS011;42714;48.260;10.980;2023-10-08T05:02:07;11.9;;;2.5;;
51226;SDS011;42714;48.260;10.980;2023-10-08T05:07:07;7.8;;;2.2;;
51226;SDS011;42714;48.260;10.980;2023-10-08T05:12:07;7.7;;;2.3;;
51226;SDS011;42714;48.260;10.980;2023-10-08T05:17:07;8.2;;;2.4;;
51226;SDS011;42714;48.260;10.980;2023-10-08T05:22:07;9.0;;;2.1;;
51226;SDS011;42714;48.260;10.980;2023-10-08T05:27:07;8.7;;;2.6;;
51226;SDS011;42714;48.260;10.980;2023-10-08T05:32:07;9.8;;;2.7;;
51226;SDS011;42714;48.260;10.980;2023-10-08T05:37:07;9.3;;;2.7;;
51226;SDS011;42714;48.260;10.980;2023-10-08T05:42:07;10.3;;;2.6;;
51226;SDS011;42714;48.260;10.980;2023-10-08T05:47:07;9.3;;;3.0;;
51226;SDS011;42714;48.260;10.980;2023-10-08T05:52:07;9.3;;;2.7;;
51226;SDS011;42714;48.260;10.980;2023-10-08T05:57:07;9.3;;;2.7;;
51226;SDS011;42714;48.260;10.980;2023-10-08T06:02:07;15.6;;;2.6;;
51226;SDS011;42714;48.260;10.980;2023-10-08T06:07:07;8.3;;;2.5;;
51226;SDS011;42714;48.260;10.980;2023-10-08T06:12:07;9.6;;;2.4;;
51226;SDS011;42714;48.260;10.980;2023-10-08T06:17:07;13.9;;;3.0;;
51226;SDS011;42714;48.260;10.980;2023-10-08T06:22:07;7.5;;;2.5;;
51226;SDS011;42714;48.260;10.980;2023-10-08T06:27:07;11.0;;;2.6;;
51226;SDS011;42714;48.260;10.980;2023-10-08T06:32:07;11.6;;;2.6;;
51226;SDS011;42714;48.260;10.980;2023-10-08T06:37:07;10.1;;;2.5;;
51226;SDS011;42714;48.260;10.980;2023-10-08T06:42:07;7.5;;;2.4;;
51226;SDS011;42714;48.260;10.980;2023-10-08T06:47:07;10.5;;;3.1;;
51226;SDS011;42714;48.260;10.980;2023-10-08T06:52:07;19.6;;;3.1;;
51226;SDS011;42714;48.260;10.980;2023-10-08T06:57:07;7.8;;;2.4;;
51226;SDS011;42714;48.260;10.980;2023-10-08T07:02:07;12.1;;;2.9;;
51226;SDS011;42714;48.260;10.980;2023-10-08T07:07:07;10.1;;;2.7;;
51226;SDS011;42714;48.260;10.980;2023-10-08T07:12:07;10.3;;;2.9;;
51226;SDS011;42714;48.260;10.980;2023-10-08T07:17:07;10.1;;;2.7;;
51226;SDS011;42714;48.260;10.980;2023-10-08T07:22:07;9.6;;;2.7;;
51226;SDS011;42714;48.260;10.980;2023-10-08T07:27:07;8.1;;;2.6;;
51226;SDS011;42714;48.260;10.980;2023-10-08T07:32:07;11.3;;;2.7;;
51226;SDS011;42714;48.260;10.980;2023-10-08T07:37:07;11.2;;;2.7;;
51226;SDS011;42714;48.260;10.980;2023-10-08T07:42:07;11.0;;;2.2;;
51226;SDS011;42714;48.260;10.980;2023-10-08T07:47:07;9.6;;;2.7;;
51226;SDS011;42714;48.260;10.980;2023-10-08T07:52:07;12.7;;;2.5;;
51226;SDS011;42714;48.260;10.980;2023-10-08T07:57:07;13.1;;;2.9;;
51226;SDS011;42714;48.260;10.980;2023-10-08T08:02:07;8.8;;;2.4;;
51226;SDS011;42714;48.260;10.980;2023-10-08T08:07:07;11.5;;;2.5;;
51226;SDS011;42714;48.260;10.980;2023-10-08T08:12:07;14.1;;;3.0;;
51226;SDS011;42714;48.260;10.980;2023-10-08T08:17:07;11.1;;;2.3;;
51226;SDS011;42714;48.260;10.980;2023-10-08T08:22:07;7.9;;;2.6;;
51226;SDS011;42714;48.260;10.980;2023-10-08T08:27:07;9.8;;;2.4;;
51226;SDS011;42714;48.260;10.980;2023-10-08T08:32:07;11.0;;;3.1;;
51226;SDS011;42714;48.260;10.980;2023-10-08T08:37:07;11.1;;;3.0;;
51226;SDS011;42714;48.260;10.980;2023-10-08T08:42:07;11.5;;;2.7;;
51226;SDS011;42714;48.260;10.980;2023-10-08T08:47:07;20.5;;;3.2;;
51226;SDS011;42714;48.260;10.980;2023-10-08T08:52:07;21.6;;;3.4;;
51226;SDS011;42714;48.260;10.980;2023-10-08T08:57:07;10.6;;;3.2;;
51226;SDS011;42714;48.260;10.980;2023-10-08T09:02:07;11.0;;;2.7;;
51226;SDS011;42714;48.260;10.980;2023-10-08T09:07:07;10.7;;;2.2;;
51226;SDS011;42714;48.260;10.980;2023-10-08T09:12:07;17.1;;;2.5;;
51226;SDS011;42714;48.260;10.980;2023-10-08T09:17:07;11.3;;;2.7;;
51226;SDS011;42714;48.260;10.980;2023-10-08T09:22:08;14.3;;;3.2;;
51226;SDS011;42714;48.260;10.980;2023-10-08T09:27:08;13.5;;;3.0;;
51226;SDS011;42714;48.260;10.980;2023-10-08T09:32:10;11.5;;;2.8;;
51226;SDS011;42714;48.260;10.980;2023-10-08T09:37:07;11.8;;;2.4;;
51226;SDS011;42714;48.260;10.980;2023-10-08T09:42:07;18.2;;;2.3;;
51226;SDS011;42714;48.260;10.980;2023-10-08T09:47:08;13.0;;;2.8;;
51226;SDS011;42714;48.260;10.980;2023-10-08T09:52:07;18.2;;;3.3;;
51226;SDS011;42714;48.260;10.980;2023-10-08T09:57:07;16.6;;;3.4;;
51226;SDS011;42714;48.260;10.980;2023-10-08T10:02:07;15.5;;;2.4;;
51226;SDS011;42714;48.260;10.980;2023-10-08T10:07:09;19.5;;;3.3;;
51226;SDS011;42714;48.260;10.980;2023-10-08T10:12:07;19.7;;;3.3;;
51226;SDS011;42714;48.260;10.980;2023-10-08T10:17:08;16.4;;;3.1;;
51226;SDS011;42714;48.260;10.980;2023-10-08T10:22:10;13.4;;;2.8;;
51226;SDS011;42714;48.260;10.980;2023-10-08T10:27:09;16.5;;;2.9;;
51226;SDS011;42714;48.260;10.980;2023-10-08T10:32:07;19.4;;;3.2;;
51226;SDS011;42714;48.260;10.980;2023-10-08T10:37:07;15.8;;;3.2;;
51226;SDS011;42714;48.260;10.980;2023-10-08T10:42:07;13.8;;;3.0;;
51226;SDS011;42714;48.260;10.980;2023-10-08T10:47:07;14.1;;;2.7;;
51226;SDS011;42714;48.260;10.980;2023-10-08T10:52:07;13.2;;;2.6;;
51226;SDS011;42714;48.260;10.980;2023-10-08T10:57:07;12.9;;;2.5;;
51226;SDS011;42714;48.260;10.980;2023-10-08T11:02:07;15.5;;;2.8;;
51226;SDS011;42714;48.260;10.980;2023-10-08T11:07:07;14.7;;;2.7;;
51226;SDS011;42714;48.260;10.980;2023-10-08T11:12:07;17.0;;;3.1;;
51226;SDS011;42714;48.260;10.980;2023-10-08T11:17:09;19.1;;;3.1;;
51226;SDS011;42714;48.260;10.980;2023-10-08T11:22:07;16.1;;;3.0;;
51226;SDS011;42714;48.260;10.980;2023-10-08T11:27:07;13.0;;;2.5;;
51226;SDS011;42714;48.260;10.980;2023-10-08T11:32:07;15.2;;;2.9;;
51226;SDS011;42714;48.260;10.980;2023-10-08T11:37:07;13.9;;;3.2;;
51226;SDS011;42714;48.260;10.980;2023-10-08T11:42:07;13.0;;;2.5;;
51226;SDS011;42714;48.260;10.980;2023-10-08T11:47:07;14.0;;;2.9;;
51226;SDS011;42714;48.260;10.980;2023-10-08T11:52:07;16.9;;;2.9;;
51226;SDS011;42714;48.260;10.980;2023-10-08T11:57:07;15.9;;;3.4;;
51226;SDS011;42714;48.260;10.980;2023-10-08T12:02:07;14.8;;;2.9;;
51226;SDS011;42714;48.260;10.980;2023-10-08T12:07:07;17.3;;;4.0;;
51226;SDS011;42714;48.260;10.980;2023-10-08T12:12:07;14.0;;;2.7;;
51226;SDS011;42714;48.260;10.980;2023-10-08T12:17:07;18.6;;;2.9;;
51226;SDS011;42714;48.260;10.980;2023-10-08T12:22:07;16.1;;;2.7;;
51226;SDS011;42714;48.260;10.980;2023-10-08T12:27:07;13.6;;;2.4;;
51226;SDS011;42714;48.260;10.980;2023-10-08T12:32:07;12.7;;;2.6;;
51226;SDS011;42714;48.260;10.980;2023-10-08T12:37:07;15.3;;;2.8;;
51226;SDS011;42714;48.260;10.980;2023-10-08T12:42:07;14.0;;;2.7;;
51226;SDS011;42714;48.260;10.980;2023-10-08T12:47:07;15.1;;;2.9;;
51226;SDS011;42714;48.260;10.980;2023-10-08T12:52:07;15.6;;;3.7;;
51226;SDS011;42714;48.260;10.980;2023-10-08T12:57:07;13.9;;;2.7;;
51226;SDS011;42714;48.260;10.980;2023-10-08T13:02:07;12.9;;;2.8;;
51226;SDS011;42714;48.260;10.980;2023-10-08T13:07:07;14.6;;;3.1;;
51226;SDS011;42714;48.260;10.980;2023-10-08T13:12:07;16.2;;;2.5;;
51226;SDS011;42714;48.260;10.980;2023-10-08T13:17:07;15.8;;;2.9;;
51226;SDS011;42714;48.260;10.980;2023-10-08T13:22:07;17.9;;;2.4;;
51226;SDS011;42714;48.260;10.980;2023-10-08T13:27:07;16.5;;;2.7;;
51226;SDS011;42714;48.260;10.980;2023-10-08T13:32:07;21.0;;;3.3;;
51226;SDS011;42714;48.260;10.980;2023-10-08T13:37:07;13.8;;;2.6;;
51226;SDS011;42714;48.260;10.980;2023-10-08T13:42:07;11.1;;;2.4;;
51226;SDS011;42714;48.260;10.980;2023-10-08T13:47:07;14.1;;;2.4;;
51226;SDS011;42714;48.260;10.980;2023-10-08T13:52:07;17.4;;;3.1;;
51226;SDS011;42714;48.260;10.980;2023-10-08T13:57:07;16.4;;;2.9;;
51226;SDS011;42714;48.260;10.980;2023-10-08T14:02:07;14.0;;;2.6;;
51226;SDS011;42714;48.260;10.980;2023-10-08T14:07:07;12.4;;;2.9;;
51226;SDS011;42714;48.260;10.980;2023-10-08T14:12:08;14.7;;;3.1;;
51226;SDS011;42714;48.260;10.980;2023-10-08T14:17:07;15.4;;;2.9;;
51226;SDS011;42714;48.260;10.980;2023-10-08T14:22:07;15.6;;;3.7;;
51226;SDS011;42714;48.260;10.980;2023-10-08T14:27:07;13.1;;;2.9;;
51226;SDS011;42714;48.260;10.980;2023-10-08T14:32:07;13.2;;;3.2;;
51226;SDS011;42714;48.260;10.980;2023-10-08T14:37:08;17.0;;;3.1;;
51226;SDS011;42714;48.260;10.980;2023-10-08T14:42:07;17.4;;;3.2;;
51226;SDS011;42714;48.260;10.980;2023-10-08T14:47:07;16.1;;;3.2;;
51226;SDS011;42714;48.260;10.980;2023-10-08T14:52:07;13.9;;;2.8;;
51226;SDS011;42714;48.260;10.980;2023-10-08T14:57:07;17.0;;;3.2;;
51226;SDS011;42714;48.260;10.980;2023-10-08T15:02:08;15.2;;;3.1;;
51226;SDS011;42714;48.260;10.980;2023-10-08T15:07:07;16.3;;;3.4;;
51226;SDS011;42714;48.260;10.980;2023-10-08T15:12:07;19.9;;;3.7;;
51226;SDS011;42714;48.260;10.980;2023-10-08T15:17:07;16.7;;;4.6;;
51226;SDS011;42714;48.260;10.980;2023-10-08T15:22:07;16.4;;;3.9;;
51226;SDS011;42714;48.260;10.980;2023-10-08T15:27:07;18.6;;;3.9;;
51226;SDS011;42714;48.260;10.980;2023-10-08T15:32:07;14.5;;;4.5;;
51226;SDS011;42714;48.260;10.980;2023-10-08T15:37:07;17.1;;;4.4;;
51226;SDS011;42714;48.260;10.980;2023-10-08T15:42:07;18.7;;;4.2;;
51226;SDS011;42714;48.260;10.980;2023-10-08T15:47:07;14.5;;;4.3;;
51226;SDS011;42714;48.260;10.980;2023-10-08T15:52:07;14.8;;;4.2;;
51226;SDS011;42714;48.260;10.980;2023-10-08T15:57:07;23.9;;;4.2;;
51226;SDS011;42714;48.260;10.980;2023-10-08T16:02:07;23.7;;;4.2;;
51226;SDS011;42714;48.260;10.980;2023-10-08T16:07:07;26.1;;;5.9;;
51226;SDS011;42714;48.260;10.980;2023-10-08T16:12:07;19.2;;;3.6;;
51226;SDS011;42714;48.260;10.980;2023-10-08T16:17:07;17.1;;;4.0;;
51226;SDS011;42714;48.260;10.980;2023-10-08T16:22:08;14.5;;;3.4;;
51226;SDS011;42714;48.260;10.980;2023-10-08T16:27:07;18.8;;;4.1;;
51226;SDS011;42714;48.260;10.980;2023-10-08T16:32:07;18.9;;;4.7;;
51226;SDS011;42714;48.260;10.980;2023-10-08T16:37:07;17.1;;;3.3;;
51226;SDS011;42714;48.260;10.980;2023-10-08T16:42:07;18.3;;;3.6;;
51226;SDS011;42714;48.260;10.980;2023-10-08T16:47:07;21.5;;;3.6;;
51226;SDS011;42714;48.260;10.980;2023-10-08T16:52:07;21.6;;;3.5;;
51226;SDS011;42714;48.260;10.980;2023-10-08T16:57:07;21.3;;;3.8;;
51226;SDS011;42714;48.260;10.980;2023-10-08T17:02:07;22.0;;;4.4;;
51226;SDS011;42714;48.260;10.980;2023-10-08T17:07:07;21.4;;;4.7;;
51226;SDS011;42714;48.260;10.980;2023-10-08T17:12:07;17.5;;;4.6;;
51226;SDS011;42714;48.260;10.980;2023-10-08T17:17:07;24.8;;;5.2;;
51226;SDS011;42714;48.260;10.980;2023-10-08T17:22:08;22.8;;;4.7;;
51226;SDS011;42714;48.260;10.980;2023-10-08T17:27:07;21.6;;;3.5;;
51226;SDS011;42714;48.260;10.980;2023-10-08T17:32:07;16.4;;;3.7;;
51226;SDS011;42714;48.260;10.980;2023-10-08T17:37:07;19.9;;;3.7;;
51226;SDS011;42714;48.260;10.980;2023-10-08T17:42:07;26.1;;;4.4;;
51226;SDS011;42714;48.260;10.980;2023-10-08T17:47:07;17.8;;;3.8;;
51226;SDS011;42714;48.260;10.980;2023-10-08T17:52:07;21.5;;;3.5;;
51226;SDS011;42714;48.260;10.980;2023-10-08T17:57:08;14.1;;;3.2;;
51226;SDS011;42714;48.260;10.980;2023-10-08T18:02:07;17.9;;;3.6;;
51226;SDS011;42714;48.260;10.980;2023-10-08T18:07:07;18.7;;;4.1;;
51226;SDS011;42714;48.260;10.980;2023-10-08T18:12:08;21.1;;;4.3;;
51226;SDS011;42714;48.260;10.980;2023-10-08T18:17:07;16.5;;;4.4;;
51226;SDS011;42714;48.260;10.980;2023-10-08T18:22:08;21.7;;;4.5;;
51226;SDS011;42714;48.260;10.980;2023-10-08T18:27:07;25.0;;;4.7;;
51226;SDS011;42714;48.260;10.980;2023-10-08T18:32:08;16.8;;;4.1;;
51226;SDS011;42714;48.260;10.980;2023-10-08T18:37:08;28.2;;;7.5;;
51226;SDS011;42714;48.260;10.980;2023-10-08T18:42:08;20.5;;;5.2;;
51226;SDS011;42714;48.260;10.980;2023-10-08T18:47:08;18.0;;;4.9;;
51226;SDS011;42714;48.260;10.980;2023-10-08T18:52:08;26.2;;;5.5;;
51226;SDS011;42714;48.260;10.980;2023-10-08T18:57:08;22.4;;;5.0;;
51226;SDS011;42714;48.260;10.980;2023-10-08T19:02:08;22.5;;;6.1;;
51226;SDS011;42714;48.260;10.980;2023-10-08T19:07:08;29.4;;;7.4;;
51226;SDS011;42714;48.260;10.980;2023-10-08T19:12:08;25.1;;;6.5;;
51226;SDS011;42714;48.260;10.980;2023-10-08T19:17:08;23.6;;;5.6;;
51226;SDS011;42714;48.260;10.980;2023-10-08T19:22:08;22.9;;;4.7;;
51226;SDS011;42714;48.260;10.980;2023-10-08T19:27:08;27.5;;;5.0;;
51226;SDS011;42714;48.260;10.980;2023-10-08T19:32:08;19.5;;;5.5;;
51226;SDS011;42714;48.260;10.980;2023-10-08T19:37:08;24.3;;;5.9;;
51226;SDS011;42714;48.260;10.980;2023-10-08T19:42:08;20.2;;;5.3;;
51226;SDS011;42714;48.260;10.980;2023-10-08T19:47:08;25.3;;;5.3;;
51226;SDS011;42714;48.260;10.980;2023-10-08T19:52:08;15.6;;;4.9;;
51226;SDS011;42714;48.260;10.980;2023-10-08T19:57:08;22.8;;;4.4;;
51226;SDS011;42714;48.260;10.980;2023-10-08T20:02:08;22.7;;;4.7;;
51226;SDS011;42714;48.260;10.980;2023-10-08T20:07:08;17.9;;;4.7;;
51226;SDS011;42714;48.260;10.980;2023-10-08T20:12:08;26.3;;;5.5;;
51226;SDS011;42714;48.260;10.980;2023-10-08T20:17:08;22.9;;;5.3;;
51226;SDS011;42714;48.260;10.980;2023-10-08T20:22:08;21.1;;;4.9;;
51226;SDS011;42714;48.260;10.980;2023-10-08T20:27:08;23.8;;;6.1;;
51226;SDS011;42714;48.260;10.980;2023-10-08T20:32:08;24.2;;;7.4;;
51226;SDS011;42714;48.260;10.980;2023-10-08T20:37:08;22.7;;;6.8;;
51226;SDS011;42714;48.260;10.980;2023-10-08T20:42:08;18.7;;;5.8;;
51226;SDS011;42714;48.260;10.980;2023-10-08T20:47:08;20.2;;;5.0;;
51226;SDS011;42714;48.260;10.980;2023-10-08T20:52:08;22.8;;;5.4;;
51226;SDS011;42714;48.260;10.980;2023-10-08T20:57:08;19.0;;;5.1;;
51226;SDS011;42714;48.260;10.980;2023-10-08T21:02:08;26.0;;;4.6;;
51226;SDS011;42714;48.260;10.980;2023-10-08T21:07:08;33.5;;;6.2;;
51226;SDS011;42714;48.260;10.980;2023-10-08T21:12:08;29.6;;;5.6;;
51226;SDS011;42714;48.260;10.980;2023-10-08T21:17:08;28.0;;;5.1;;
51226;SDS011;42714;48.260;10.980;2023-10-08T21:22:08;33.9;;;6.4;;
51226;SDS011;42714;48.260;10.980;2023-10-08T21:27:08;25.4;;;5.3;;
51226;SDS011;42714;48.260;10.980;2023-10-08T21:32:08;25.8;;;5.3;;
51226;SDS011;42714;48.260;10.980;2023-10-08T21:37:08;25.7;;;5.2;;
51226;SDS011;42714;48.260;10.980;2023-10-08T21:42:08;22.3;;;5.4;;
51226;SDS011;42714;48.260;10.980;2023-10-08T21:47:08;31.9;;;6.5;;
51226;SDS011;42714;48.260;10.980;2023-10-08T21:52:08;27.9;;;5.6;;
51226;SDS011;42714;48.260;10.980;2023-10-08T21:57:08;27.4;;;5.7;;
51226;SDS011;42714;48.260;10.980;2023-10-08T22:02:08;22.4;;;5.4;;
51226;SDS011;42714;48.260;10.980;2023-10-08T22:07:08;22.8;;;5.2;;
51226;SDS011;42714;48.260;10.980;2023-10-08T22:12:08;29.3;;;5.6;;
51226;SDS011;42714;48.260;10.980;2023-10-08T22:17:08;20.2;;;5.7;;
51226;SDS011;42714;48.260;10.980;2023-10-08T22:22:11;26.0;;;5.6;;
51226;SDS011;42714;48.260;10.980;2023-10-08T22:27:08;28.5;;;5.9;;
51226;SDS011;42714;48.260;10.980;2023-10-08T22:32:08;22.0;;;5.4;;
51226;SDS011;42714;48.260;10.980;2023-10-08T22:37:08;20.3;;;5.4;;
51226;SDS011;42714;48.260;10.980;2023-10-08T22:42:08;26.2;;;5.3;;
51226;SDS011;42714;48.260;10.980;2023-10-08T22:47:08;22.2;;;5.6;;
51226;SDS011;42714;48.260;10.980;2023-10-08T22:52:08;25.2;;;5.3;;
51226;SDS011;42714;48.260;10.980;2023-10-08T22:57:08;26.6;;;6.2;;
51226;SDS011;42714;48.260;10.980;2023-10-08T23:02:08;23.7;;;5.6;;
51226;SDS011;42714;48.260;10.980;2023-10-08T23:07:08;26.6;;;5.4;;
51226;SDS011;42714;48.260;10.980;2023-10-08T23:12:08;22.9;;;5.5;;
51226;SDS011;42714;48.260;10.980;2023-10-08T23:17:08;29.8;;;5.2;;
51226;SDS011;42714;48.260;10.980;2023-10-08T23:22:08;25.9;;;5.9;;
51226;SDS011;42714;48.260;10.980;2023-10-08T23:27:08;20.4;;;5.0;;
51226;SDS011;42714;48.260;10.980;2023-10-08T23:32:08;24.1;;;5.9;;
51226;SDS011;42714;48.260;10.980;2023-10-08T23:37:08;23.4;;;5.1;;
51226;SDS011;42714;48.260;10.980;2023-10-08T23:42:08;24.7;;;5.8;;
51226;SDS011;42714;48.260;10.980;2023-10-08T23:47:08;24.2;;;5.1;;
51226;SDS011;42714;48.260;10.980;2023-10-08T23:52:08;30.0;;;5.3;;
51226;SDS011;42714;48.260;10.980;2023-10-08T23:57:08;20.9;;;5.1;;
